Time;durP1;ratioP1;P1;durP2;ratioP2;P2;SDS_P1;SDS_P2;PMS_P1;PMS_P2;Temp;Humidity;BMP_temperature;BMP_pressure;BME280_temperature;BME280_humidity;BME280_pressure;Samples;Min_cycle;Max_cycle;Signal;HPM_P1;HPM_P2
2021/01/15 00:01:22;;;;;;;14.20;9.68;;;;;;;15.54;24.05;98309.42;1666857;84;21191;-9
2021/01/15 00:03:50;;;;;;;12.43;9.35;;;;;;;15.53;23.94;98315.70;1667460;85;21212;-9
2021/01/15 00:06:21;;;;;;;14.13;9.33;;;;;;;15.54;24.01;98322.68;1640507;86;21176;-9
2021/01/15 00:08:48;;;;;;;12.07;8.58;;;;;;;15.54;24.12;98325.33;1656349;84;21245;-9
2021/01/15 00:11:21;;;;;;;13.35;9.23;;;;;;;15.55;24.09;98328.36;1652212;86;21235;-9
2021/01/15 00:13:49;;;;;;;11.38;8.33;;;;;;;15.56;24.17;98330.03;1657134;85;21641;-9
2021/01/15 00:16:23;;;;;;;13.88;8.30;;;;;;;15.58;24.32;98336.09;1650838;85;21223;-9
2021/01/15 00:18:53;;;;;;;11.55;8.38;;;;;;;15.58;24.45;98328.14;1614366;86;21215;-8
2021/01/15 00:21:26;;;;;;;13.10;8.58;;;;;;;15.60;24.64;98328.00;1682671;84;22265;-9
2021/01/15 00:23:59;;;;;;;12.50;8.20;;;;;;;15.62;24.72;98332.73;1673600;84;21385;-9
2021/01/15 00:26:28;;;;;;;12.35;8.75;;;;;;;15.63;25.00;98329.09;1627063;85;21669;-9
2021/01/15 00:28:56;;;;;;;11.93;8.10;;;;;;;15.65;25.14;98323.69;1673270;84;21820;-9
2021/01/15 00:31:33;;;;;;;15.00;9.15;;;;;;;15.67;25.50;98321.76;1643943;86;21173;-9
2021/01/15 00:34:01;;;;;;;17.48;9.80;;;;;;;15.69;25.71;98326.00;1615357;86;21303;-9
2021/01/15 00:36:28;;;;;;;18.65;10.35;;;;;;;15.72;25.92;98319.15;1620353;87;21335;-9
2021/01/15 00:38:56;;;;;;;14.93;10.00;;;;;;;15.75;26.04;98323.36;1670040;84;21676;-9
2021/01/15 00:41:23;;;;;;;14.38;9.10;;;;;;;15.80;26.13;98326.55;1625038;87;21163;-9
2021/01/15 00:43:51;;;;;;;14.38;9.40;;;;;;;15.84;26.29;98334.65;1603889;87;21710;-9
2021/01/15 00:46:31;;;;;;;15.65;9.63;;;;;;;15.87;26.44;98339.73;1655220;85;21586;-9
2021/01/15 00:49:08;;;;;;;13.50;8.98;;;;;;;15.90;26.45;98336.85;1600490;88;22206;-9
2021/01/15 00:51:37;;;;;;;13.62;8.73;;;;;;;15.92;26.53;98329.61;1612822;87;21711;-9
2021/01/15 00:54:06;;;;;;;12.50;8.48;;;;;;;15.93;26.49;98335.27;1592671;87;21227;-9
2021/01/15 00:56:34;;;;;;;15.03;8.75;;;;;;;15.94;26.33;98338.78;1638279;86;21613;-9
2021/01/15 00:59:10;;;;;;;12.18;8.13;;;;;;;15.93;25.98;98336.59;1605036;88;21157;-9
2021/01/15 01:01:39;;;;;;;13.35;8.70;;;;;;;15.89;25.60;98341.78;1630371;87;21318;-9
2021/01/15 01:04:07;;;;;;;11.90;8.48;;;;;;;15.83;25.39;98340.91;1629298;87;21257;-9
2021/01/15 01:06:35;;;;;;;12.65;7.80;;;;;;;15.77;25.31;98342.71;1634708;86;21466;-9
2021/01/15 01:09:07;;;;;;;11.93;7.70;;;;;;;15.74;25.28;98346.87;1643023;86;21345;-9
2021/01/15 01:11:34;;;;;;;10.70;7.22;;;;;;;15.71;25.33;98343.12;1635714;86;21186;-9
2021/01/15 01:14:03;;;;;;;11.40;7.97;;;;;;;15.69;25.19;98351.69;1680483;85;21527;-9
2021/01/15 01:16:32;;;;;;;12.10;7.75;;;;;;;15.70;25.15;98345.40;1640171;86;21267;-9
2021/01/15 01:19:01;;;;;;;10.78;7.50;;;;;;;15.69;25.30;98349.03;1609645;88;21556;-9
2021/01/15 01:21:32;;;;;;;10.30;7.50;;;;;;;15.70;25.23;98349.38;1586399;87;21199;-9
2021/01/15 01:24:15;;;;;;;12.30;8.05;;;;;;;15.69;25.21;98355.66;1599356;88;21235;-9
2021/01/15 01:26:44;;;;;;;11.15;7.87;;;;;;;15.66;25.20;98349.25;1598539;88;22414;-9
2021/01/15 01:29:11;;;;;;;11.43;7.17;;;;;;;15.66;25.34;98345.27;1578537;88;21232;-9
2021/01/15 01:31:39;;;;;;;11.60;8.10;;;;;;;15.66;25.23;98350.58;1634731;86;21544;-9
2021/01/15 01:34:06;;;;;;;11.48;7.75;;;;;;;15.64;25.03;98354.67;1652264;85;21950;-9
2021/01/15 01:36:34;;;;;;;10.53;7.45;;;;;;;15.60;24.96;98354.52;1672409;84;21134;-9
2021/01/15 01:39:02;;;;;;;11.12;8.03;;;;;;;15.57;25.09;98361.39;1651839;85;22403;-9
2021/01/15 01:41:29;;;;;;;12.37;7.78;;;;;;;15.56;25.24;98360.52;1719206;82;21177;-9
2021/01/15 01:43:57;;;;;;;10.45;7.17;;;;;;;15.56;25.26;98360.52;1674484;84;21195;-9
2021/01/15 01:46:25;;;;;;;10.20;7.40;;;;;;;15.57;25.37;98367.53;1698431;83;21217;-8
2021/01/15 01:48:53;;;;;;;9.63;7.47;;;;;;;15.59;25.36;98366.09;1646047;85;21261;-9
2021/01/15 01:51:21;;;;;;;8.83;7.05;;;;;;;15.60;25.32;98369.09;1647402;86;21227;-9
2021/01/15 01:53:48;;;;;;;9.80;7.28;;;;;;;15.60;25.29;98369.96;1663760;84;21179;-9
2021/01/15 01:56:16;;;;;;;9.03;7.15;;;;;;;15.60;25.37;98373.94;1654372;85;21707;-9
2021/01/15 01:58:43;;;;;;;9.48;7.22;;;;;;;15.62;25.55;98373.83;1698445;84;21227;-9
2021/01/15 02:01:10;;;;;;;10.00;7.50;;;;;;;15.63;25.55;98373.34;1674987;84;21208;-9
2021/01/15 02:03:38;;;;;;;11.18;7.35;;;;;;;15.63;25.32;98368.03;1698306;83;21663;-9
2021/01/15 02:06:06;;;;;;;13.13;7.75;;;;;;;15.63;25.38;98364.89;1697938;83;21464;-9
2021/01/15 02:08:33;;;;;;;11.93;8.33;;;;;;;15.65;25.43;98368.77;1673404;84;21212;-9
2021/01/15 02:11:28;;;;;;;9.90;7.35;;;;;;;15.65;25.58;98373.61;1675502;84;21192;-9
2021/01/15 02:14:06;;;;;;;11.18;6.72;;;;;;;15.65;25.66;98369.63;1697642;84;21202;-9
2021/01/15 02:16:34;;;;;;;14.63;7.85;;;;;;;15.65;25.40;98366.11;1642968;86;22113;-10
2021/01/15 02:19:22;;;;;;;10.90;7.58;;;;;;;15.64;25.45;98365.77;1691672;83;21203;-9
2021/01/15 02:22:27;;;;;;;15.75;7.37;;;;;;;15.63;25.57;98368.88;1644620;86;21207;-10
2021/01/15 02:25:03;;;;;;;10.07;6.87;;;;;;;15.64;25.57;98373.23;1714279;82;21564;-9
2021/01/15 02:27:39;;;;;;;11.80;7.37;;;;;;;15.65;25.68;98375.39;1691705;83;21172;-9
2021/01/15 02:30:43;;;;;;;11.18;7.12;;;;;;;15.66;25.68;98379.26;1672251;84;21636;-10
2021/01/15 02:33:30;;;;;;;11.33;7.08;;;;;;;15.66;25.49;98379.26;1667715;84;22291;-9
2021/01/15 02:36:07;;;;;;;11.80;7.60;;;;;;;15.68;25.41;98388.43;1659168;86;21800;-9
2021/01/15 02:38:56;;;;;;;14.50;8.48;;;;;;;15.67;25.47;98381.42;1684039;84;21194;-9
2021/01/15 02:41:28;;;;;;;11.80;7.80;;;;;;;15.68;25.50;98383.13;1652815;85;21226;-9
2021/01/15 02:44:05;;;;;;;9.63;7.08;;;;;;;15.70;25.58;98385.17;1660783;85;21395;-10
2021/01/15 02:46:58;;;;;;;9.08;7.25;;;;;;;15.68;25.13;98385.28;1675013;84;21200;-9
2021/01/15 02:49:26;;;;;;;10.30;7.03;;;;;;;15.61;24.58;98394.66;1615215;86;21216;-9
2021/01/15 02:51:54;;;;;;;7.97;6.70;;;;;;;15.54;24.07;98397.41;1670855;84;21176;-9
2021/01/15 02:54:21;;;;;;;9.43;7.15;;;;;;;15.47;23.91;98398.33;1674408;83;21229;-9
2021/01/15 02:56:51;;;;;;;12.82;7.30;;;;;;;15.41;23.73;98401.41;1630594;86;21171;-10
2021/01/15 02:59:19;;;;;;;11.48;7.58;;;;;;;15.36;23.51;98401.73;1671817;84;21307;-9
2021/01/15 03:02:09;;;;;;;10.65;7.15;;;;;;;15.32;23.21;98407.39;1620333;86;21220;-9
2021/01/15 03:05:03;;;;;;;12.95;6.67;;;;;;;15.26;22.95;98397.22;1661707;84;21177;-9
2021/01/15 03:07:31;;;;;;;10.35;6.65;;;;;;;15.18;23.59;98409.22;1669565;84;21185;-10
2021/01/15 03:10:03;;;;;;;13.50;7.28;;;;;;;15.17;26.15;98408.84;1694539;83;22086;-9
2021/01/15 03:12:31;;;;;;;12.20;8.33;;;;;;;15.29;28.14;98410.25;1673787;84;21207;-10
2021/01/15 03:14:58;;;;;;;13.32;8.13;;;;;;;15.44;29.09;98409.14;1648260;85;21184;-10
2021/01/15 03:17:33;;;;;;;9.08;7.35;;;;;;;15.66;29.42;98410.23;1653445;85;21197;-9
2021/01/15 03:20:04;;;;;;;9.83;6.92;;;;;;;15.89;29.46;98412.08;1673073;84;21184;-9
2021/01/15 03:22:32;;;;;;;10.53;7.60;;;;;;;16.08;29.57;98414.19;1681816;84;21292;-9
2021/01/15 03:25:00;;;;;;;25.25;12.98;;;;;;;16.22;29.78;98420.27;1666486;85;21215;-9
2021/01/15 03:27:47;;;;;;;23.00;11.30;;;;;;;16.31;29.69;98413.79;1628432;86;21240;-9
2021/01/15 03:30:23;;;;;;;19.82;10.53;;;;;;;16.40;30.16;98416.71;1661223;84;21184;-9
2021/01/15 03:32:54;;;;;;;28.27;10.23;;;;;;;16.49;30.57;98419.52;1643139;84;21241;-9
2021/01/15 03:35:24;;;;;;;13.95;10.30;;;;;;;16.58;30.81;98424.59;1629449;87;22125;-9
2021/01/15 03:38:09;;;;;;;19.55;9.63;;;;;;;16.65;30.96;98427.62;1600868;88;21184;-9
2021/01/15 03:40:40;;;;;;;21.25;9.18;;;;;;;16.69;31.10;98421.97;1620371;88;21156;-9
2021/01/15 03:43:16;;;;;;;22.65;8.95;;;;;;;16.77;31.22;98421.84;1629598;87;21196;-9
2021/01/15 03:45:44;;;;;;;16.20;8.48;;;;;;;16.82;31.31;98422.33;1625103;87;21212;-9
2021/01/15 03:48:13;;;;;;;13.13;8.13;;;;;;;16.88;31.35;98428.54;1639102;86;21381;-9
2021/01/15 03:50:40;;;;;;;11.70;7.53;;;;;;;16.94;31.50;98433.35;1617832;87;21277;-9
2021/01/15 03:53:08;;;;;;;10.93;7.60;;;;;;;17.00;31.55;98438.69;1628273;88;21186;-9
2021/01/15 03:55:36;;;;;;;10.50;7.97;;;;;;;17.05;31.65;98440.50;1629977;87;21201;-9
2021/01/15 03:58:03;;;;;;;12.13;7.87;;;;;;;17.10;31.68;98438.33;1639169;86;21218;-9
2021/01/15 04:00:31;;;;;;;11.93;6.67;;;;;;;17.15;31.79;98443.28;1602489;87;21233;-9
2021/01/15 04:02:58;;;;;;;10.40;6.85;;;;;;;17.19;31.64;98436.75;1625035;87;21282;-9
2021/01/15 04:05:26;;;;;;;12.78;7.00;;;;;;;17.23;31.74;98440.84;1629625;87;21192;-9
2021/01/15 04:07:53;;;;;;;12.65;6.83;;;;;;;17.27;31.79;98443.63;1623989;87;21200;-9
2021/01/15 04:10:21;;;;;;;15.05;6.60;;;;;;;17.31;31.88;98446.89;1621570;88;21197;-9
2021/01/15 04:12:49;;;;;;;22.30;7.00;;;;;;;17.34;31.84;98440.84;1629688;86;21383;-9
2021/01/15 04:15:17;;;;;;;10.72;6.65;;;;;;;17.38;31.90;98442.30;1620400;88;21238;-9
2021/01/15 04:17:44;;;;;;;10.10;7.03;;;;;;;17.40;31.98;98443.02;1574152;89;21198;-9
2021/01/15 04:20:14;;;;;;;8.50;6.17;;;;;;;17.44;32.03;98444.94;1595960;87;21239;-10
2021/01/15 04:22:44;;;;;;;11.22;5.50;;;;;;;17.46;32.14;98439.84;1603389;88;21156;-9
2021/01/15 04:25:13;;;;;;;8.50;6.37;;;;;;;17.51;32.21;98446.63;1648649;85;21192;-9
2021/01/15 04:27:41;;;;;;;7.67;5.85;;;;;;;17.54;32.32;98452.54;1647113;86;21223;-9
2021/01/15 04:30:14;;;;;;;9.20;5.72;;;;;;;17.56;32.39;98441.28;1622027;88;21217;-10
2021/01/15 04:32:46;;;;;;;10.85;5.80;;;;;;;17.60;32.44;98445.87;1637859;85;21149;-9
2021/01/15 04:35:15;;;;;;;8.63;5.55;;;;;;;17.63;32.51;98453.14;1608727;87;21192;-10
2021/01/15 04:37:43;;;;;;;6.17;5.20;;;;;;;17.66;32.50;98447.20;1671586;84;21483;-9
2021/01/15 04:40:11;;;;;;;7.30;5.22;;;;;;;17.69;32.54;98455.78;1680530;84;22334;-9
2021/01/15 04:42:45;;;;;;;5.75;4.87;;;;;;;17.72;32.55;98458.20;1665737;85;21189;-9
2021/01/15 04:45:15;;;;;;;7.35;4.67;;;;;;;17.74;32.56;98461.58;1680116;84;21128;-9
2021/01/15 04:47:46;;;;;;;6.42;4.97;;;;;;;17.76;32.61;98463.62;1677461;84;21161;-9
2021/01/15 04:50:16;;;;;;;5.70;4.65;;;;;;;17.78;32.60;98466.99;1664396;85;21293;-9
2021/01/15 04:52:50;;;;;;;9.20;5.42;;;;;;;17.81;32.43;98477.39;1628869;85;21639;-10
2021/01/15 04:55:24;;;;;;;6.67;5.15;;;;;;;17.81;32.43;98474.73;1636642;85;21220;-9
2021/01/15 04:57:54;;;;;;;7.50;5.03;;;;;;;17.85;32.52;98483.80;1681858;83;21560;-9
2021/01/15 05:00:26;;;;;;;6.10;5.03;;;;;;;17.87;32.60;98487.20;1656441;84;21188;-9
2021/01/15 05:02:54;;;;;;;5.50;5.00;;;;;;;17.89;32.60;98487.95;1681811;83;21256;-9
2021/01/15 05:05:28;;;;;;;8.50;4.90;;;;;;;17.91;32.66;98487.34;1681818;83;21661;-9
2021/01/15 05:08:14;;;;;;;7.53;4.80;;;;;;;17.94;32.42;98491.08;1682244;83;21232;-9
2021/01/15 05:10:48;;;;;;;7.17;5.15;;;;;;;17.94;32.35;98495.08;1684584;83;21196;-9
2021/01/15 05:13:17;;;;;;;6.12;4.80;;;;;;;17.93;32.57;98494.20;1640338;85;21215;-9
2021/01/15 05:15:49;;;;;;;5.55;4.78;;;;;;;17.94;32.43;98499.06;1654393;85;21211;-9
2021/01/15 05:18:19;;;;;;;5.10;4.60;;;;;;;17.94;32.51;98492.41;1678094;84;21215;-10
2021/01/15 05:20:47;;;;;;;4.87;4.37;;;;;;;17.94;32.45;98493.74;1680226;83;21223;-9
2021/01/15 05:23:16;;;;;;;4.40;4.00;;;;;;;17.95;32.53;98501.57;1680066;83;21140;-9
2021/01/15 05:25:46;;;;;;;4.97;4.35;;;;;;;17.95;32.43;98501.57;1679857;83;21212;-9
2021/01/15 05:28:18;;;;;;;4.92;4.00;;;;;;;17.95;32.71;98510.05;1680143;84;21229;-9
2021/01/15 05:30:58;;;;;;;5.92;4.30;;;;;;;17.97;32.85;98516.09;1672372;84;21235;-9
2021/01/15 05:33:27;;;;;;;6.15;4.65;;;;;;;17.97;32.76;98514.30;1631056;85;21209;-9
2021/01/15 05:35:54;;;;;;;5.97;4.60;;;;;;;17.99;33.06;98518.16;1645976;85;21678;-9
2021/01/15 05:38:22;;;;;;;6.83;4.25;;;;;;;18.00;33.00;98524.70;1650607;85;21209;-9
2021/01/15 05:40:52;;;;;;;5.35;4.60;;;;;;;18.02;32.87;98529.86;1649343;85;22264;-10
2021/01/15 05:43:27;;;;;;;5.20;4.00;;;;;;;18.02;33.14;98529.86;1614818;87;21213;-9
2021/01/15 05:46:08;;;;;;;4.95;4.28;;;;;;;18.03;33.31;98535.56;1617068;87;21645;-9
2021/01/15 05:48:39;;;;;;;4.50;4.10;;;;;;;18.04;33.42;98537.27;1649475;86;21245;-9
2021/01/15 05:51:07;;;;;;;4.42;4.00;;;;;;;18.07;33.49;98533.49;1602139;88;21796;-9
2021/01/15 05:53:41;;;;;;;5.20;3.80;;;;;;;18.09;33.52;98531.08;1582429;88;21610;-9
2021/01/15 05:56:08;;;;;;;8.30;4.47;;;;;;;18.11;33.57;98537.12;1604473;88;21219;-10
2021/01/15 05:58:36;;;;;;;5.40;4.10;;;;;;;18.14;33.63;98540.87;1606706;88;21672;-9
2021/01/15 06:01:04;;;;;;;6.33;3.65;;;;;;;18.17;33.73;98546.41;1605505;88;21615;-10
2021/01/15 06:03:32;;;;;;;4.87;3.62;;;;;;;18.19;33.81;98538.67;1608824;87;21144;-9
2021/01/15 06:05:59;;;;;;;4.37;3.98;;;;;;;18.22;33.89;98536.73;1585944;88;21226;-9
2021/01/15 06:08:43;;;;;;;4.58;4.15;;;;;;;18.23;33.96;98538.43;1598276;88;21228;-9
2021/01/15 06:11:23;;;;;;;4.45;4.00;;;;;;;18.24;34.03;98540.97;1601500;88;21208;-9
2021/01/15 06:13:50;;;;;;;5.83;3.62;;;;;;;18.26;34.07;98543.02;1606294;88;21273;-9
2021/01/15 06:16:19;;;;;;;4.15;3.75;;;;;;;18.28;34.06;98544.22;1628425;86;21228;-9
2021/01/15 06:19:02;;;;;;;6.20;3.87;;;;;;;18.31;34.01;98551.96;1677593;84;21644;-9
2021/01/15 06:21:32;;;;;;;4.72;4.00;;;;;;;18.33;33.96;98559.33;1632833;86;21188;-9
2021/01/15 06:24:08;;;;;;;5.70;3.95;;;;;;;18.35;34.05;98561.37;1678399;84;21201;-9
2021/01/15 06:26:39;;;;;;;4.03;3.62;;;;;;;18.35;33.85;98552.05;1670166;84;21185;-9
2021/01/15 06:29:12;;;;;;;4.28;3.87;;;;;;;18.37;34.04;98554.09;1650069;86;21189;-9
2021/01/15 06:31:48;;;;;;;4.25;3.85;;;;;;;18.39;33.97;98561.47;1648305;85;21386;-9
2021/01/15 06:34:20;;;;;;;4.78;3.85;;;;;;;18.39;33.86;98568.13;1660088;84;21290;-9
2021/01/15 06:36:53;;;;;;;7.12;4.08;;;;;;;18.42;33.91;98577.70;1658281;84;21218;-9
2021/01/15 06:39:22;;;;;;;4.85;3.80;;;;;;;18.42;33.97;98580.36;1643507;86;21175;-9
2021/01/15 06:42:01;;;;;;;4.33;3.92;;;;;;;18.45;33.83;98578.29;1641634;84;21240;-9
2021/01/15 06:44:30;;;;;;;7.28;4.30;;;;;;;18.46;33.90;98589.31;1664772;85;22272;-9
2021/01/15 06:47:02;;;;;;;5.62;3.80;;;;;;;18.49;33.93;98583.74;1663937;84;21191;-9
2021/01/15 06:52:13;;;;;;;5.40;3.83;;;;;;;18.56;34.68;98595.58;1743326;79;22771;-8
2021/01/15 06:54:45;;;;;;;4.22;3.72;;;;;;;18.57;34.63;98594.58;1709271;82;21645;-8
2021/01/15 06:57:14;;;;;;;6.67;3.83;;;;;;;18.65;34.52;98597.13;1726760;80;21184;-8
2021/01/15 06:59:51;;;;;;;10.63;3.90;;;;;;;18.71;34.36;98596.59;1728383;80;21652;-8
2021/01/15 07:02:33;;;;;;;6.95;3.60;;;;;;;18.79;34.28;98604.80;1681045;80;21633;-8
2021/01/15 07:05:02;;;;;;;4.22;3.30;;;;;;;18.87;34.21;98602.38;1720831;81;21212;-8
2021/01/15 07:07:31;;;;;;;5.17;3.83;;;;;;;18.93;34.08;98612.53;1732909;81;21129;-8
2021/01/15 07:10:01;;;;;;;4.20;3.77;;;;;;;18.99;33.92;98612.99;1690944;82;21180;-8
2021/01/15 07:12:28;;;;;;;3.83;3.50;;;;;;;19.03;33.91;98612.61;1724787;81;21156;-8
2021/01/15 07:14:57;;;;;;;4.55;3.72;;;;;;;19.07;33.90;98613.20;1694764;81;21188;-8
2021/01/15 07:17:37;;;;;;;5.28;3.62;;;;;;;19.12;33.77;98608.32;1774500;79;21652;-8
2021/01/15 07:20:12;;;;;;;15.65;6.20;;;;;;;19.16;33.78;98621.73;1742598;80;21644;-8
2021/01/15 07:22:50;;;;;;;19.37;10.93;;;;;;;19.23;33.17;98626.94;1727976;80;21196;-8
2021/01/15 07:25:21;;;;;;;16.27;10.32;;;;;;;19.15;29.97;98632.06;1779113;79;21163;-9
2021/01/15 07:27:49;;;;;;;14.07;8.73;;;;;;;18.94;29.94;98634.70;1724524;80;21196;-8
2021/01/15 07:30:21;;;;;;;15.08;7.15;;;;;;;18.89;31.27;98636.90;1750677;79;21146;-8
2021/01/15 07:32:54;;;;;;;16.55;6.95;;;;;;;18.88;32.86;98646.72;1775667;79;21151;-8
2021/01/15 07:35:25;;;;;;;13.75;6.60;;;;;;;18.94;33.20;98652.02;1760663;79;21489;-8
2021/01/15 07:38:11;;;;;;;8.68;6.47;;;;;;;18.97;33.39;98653.11;1747818;80;21194;-8
2021/01/15 07:40:38;;;;;;;11.15;6.42;;;;;;;19.03;33.52;98657.07;1748431;80;21202;-8
2021/01/15 07:43:07;;;;;;;35.30;7.78;;;;;;;19.06;33.56;98659.02;1752538;80;21198;-8
2021/01/15 07:45:42;;;;;;;9.60;6.22;;;;;;;19.10;33.60;98660.94;1739954;80;21154;-8
2021/01/15 07:48:11;;;;;;;11.75;6.28;;;;;;;19.12;33.61;98652.31;1748059;80;21663;-8
2021/01/15 07:50:43;;;;;;;11.83;6.67;;;;;;;19.15;33.55;98661.39;1716189;80;21194;-8
2021/01/15 07:53:36;;;;;;;12.20;6.42;;;;;;;19.17;33.55;98670.11;1742740;80;21191;-8
2021/01/15 07:56:05;;;;;;;8.28;5.87;;;;;;;19.19;33.59;98672.65;1736189;79;21148;-8
2021/01/15 07:58:45;;;;;;;12.53;5.78;;;;;;;19.20;33.71;98672.98;1742325;80;21187;-8
2021/01/15 08:01:16;;;;;;;9.43;5.92;;;;;;;19.24;33.82;98673.11;1719230;80;21214;-8
2021/01/15 08:03:56;;;;;;;18.85;6.15;;;;;;;19.26;33.81;98683.98;1754352;80;21203;-8
2021/01/15 08:06:26;;;;;;;17.55;5.20;;;;;;;19.28;33.84;98680.73;1720946;80;21197;-8
2021/01/15 08:09:04;;;;;;;14.38;6.08;;;;;;;19.34;34.01;98693.19;1725109;80;21203;-8
2021/01/15 08:11:36;;;;;;;9.55;5.35;;;;;;;19.37;34.01;98694.27;1747662;81;21657;-8
2021/01/15 08:14:12;;;;;;;7.45;5.35;;;;;;;19.41;34.13;98696.52;1749267;80;21190;-8
2021/01/15 08:16:50;;;;;;;9.80;5.50;;;;;;;19.48;34.17;98704.39;1741691;80;21199;-9
2021/01/15 08:19:21;;;;;;;6.97;5.22;;;;;;;19.53;34.19;98703.98;1746819;80;21195;-8
2021/01/15 08:21:50;;;;;;;8.50;5.50;;;;;;;19.58;34.24;98708.44;1749923;79;21222;-8
2021/01/15 08:24:18;;;;;;;13.95;6.05;;;;;;;19.63;32.45;98716.89;1717018;82;21147;-8
2021/01/15 08:26:54;;;;;;;15.03;5.87;;;;;;;19.52;32.37;98718.31;1744311;80;21195;-8
2021/01/15 08:29:28;;;;;;;15.58;5.42;;;;;;;19.46;33.06;98720.16;1711758;80;21668;-8
2021/01/15 08:32:02;;;;;;;14.98;5.53;;;;;;;19.49;33.49;98714.56;1752521;80;21628;-8
2021/01/15 08:34:34;;;;;;;15.65;4.97;;;;;;;19.56;33.78;98717.06;1758896;80;21576;-8
2021/01/15 08:37:09;;;;;;;14.98;4.58;;;;;;;19.64;33.91;98714.59;1779141;79;21163;-8
2021/01/15 08:39:55;;;;;;;34.78;4.67;;;;;;;19.73;33.97;98712.95;1752446;80;21259;-8
2021/01/15 08:42:23;;;;;;;14.07;4.85;;;;;;;19.84;34.00;98713.42;1753496;79;21206;-8
2021/01/15 08:44:51;;;;;;;9.50;4.80;;;;;;;19.91;34.05;98721.25;1724259;82;21175;-8
2021/01/15 08:47:20;;;;;;;10.98;4.83;;;;;;;19.99;34.10;98722.78;1746320;79;21120;-8
2021/01/15 08:49:57;;;;;;;9.95;4.67;;;;;;;20.05;34.15;98718.72;1743062;79;21302;31
2021/01/15 08:55:11;;;;;;;8.43;4.37;;;;;;;20.23;34.29;98714.94;1835118;76;22914;-8
2021/01/15 08:57:38;;;;;;;12.58;5.00;;;;;;;20.26;34.33;98726.70;1768955;78;21111;-8
2021/01/15 09:00:14;;;;;;;7.55;4.60;;;;;;;20.31;34.37;98727.14;1754605;80;21178;-8
2021/01/15 09:02:43;;;;;;;7.37;4.90;;;;;;;20.37;34.42;98720.41;1779665;79;21233;-8
2021/01/15 09:05:15;;;;;;;7.42;4.22;;;;;;;20.44;34.46;98720.70;1733932;80;21193;-8
2021/01/15 09:07:44;;;;;;;16.20;5.50;;;;;;;20.47;34.53;98721.78;1752548;80;21216;-8
2021/01/15 09:10:16;;;;;;;11.93;4.28;;;;;;;20.52;34.59;98715.53;1741932;80;21180;-8
2021/01/15 09:12:47;;;;;;;9.85;4.53;;;;;;;20.57;34.66;98720.81;1776451;79;21245;-8
2021/01/15 09:15:23;;;;;;;8.35;4.78;;;;;;;20.63;34.87;98724.82;1756890;80;21182;-8
2021/01/15 09:17:53;;;;;;;10.93;4.15;;;;;;;20.68;35.03;98718.57;1773617;80;21171;-8
2021/01/15 09:20:24;;;;;;;7.72;4.30;;;;;;;20.73;35.09;98727.02;1727985;79;21190;-8
2021/01/15 09:22:53;;;;;;;5.45;4.20;;;;;;;20.77;35.13;98729.77;1751126;80;21174;-8
2021/01/15 09:25:21;;;;;;;5.92;4.03;;;;;;;20.84;35.12;98727.88;1780261;80;21414;-8
2021/01/15 09:27:48;;;;;;;6.90;4.25;;;;;;;20.87;35.13;98731.62;1762754;80;21179;-8
2021/01/15 09:30:17;;;;;;;10.85;5.10;;;;;;;20.92;34.90;98725.38;1718714;80;21612;-8
2021/01/15 09:32:45;;;;;;;6.37;4.67;;;;;;;20.88;31.92;98735.97;1777429;80;21158;-8
2021/01/15 09:35:17;;;;;;;6.85;4.75;;;;;;;20.73;32.16;98735.05;1784143;80;21162;-8
2021/01/15 09:37:45;;;;;;;6.58;4.50;;;;;;;20.65;32.60;98740.23;1757994;80;21591;-8
2021/01/15 09:40:14;;;;;;;5.40;4.62;;;;;;;20.59;32.57;98746.07;1783862;80;21197;-8
2021/01/15 09:42:41;;;;;;;9.68;4.90;;;;;;;20.55;32.81;98750.02;1779945;80;21170;-8
2021/01/15 09:45:10;;;;;;;10.75;4.83;;;;;;;20.53;33.07;98743.96;1783656;80;21131;-8
2021/01/15 09:47:42;;;;;;;7.25;4.97;;;;;;;20.51;33.08;98748.57;1784654;79;21158;-8
2021/01/15 09:50:10;;;;;;;9.15;4.95;;;;;;;20.50;33.22;98752.24;1784165;80;21224;-8
2021/01/15 09:52:39;;;;;;;23.55;10.98;;;;;;;20.51;33.60;98738.75;1755910;80;21207;-8
2021/01/15 09:55:08;;;;;;;30.35;16.25;;;;;;;20.52;31.41;98744.93;1757929;80;21181;-8
2021/01/15 09:57:43;;;;;;;40.83;23.98;;;;;;;20.24;26.15;98750.04;1778602;79;21201;-8
2021/01/15 10:00:11;;;;;;;44.75;27.17;;;;;;;19.61;23.83;98745.53;1777245;80;21192;-9
2021/01/15 10:02:38;;;;;;;38.78;21.17;;;;;;;18.91;25.67;98749.56;1758043;80;22147;-9
2021/01/15 10:05:08;;;;;;;35.90;19.62;;;;;;;18.68;27.96;98756.74;1784359;80;21174;-9
2021/01/15 10:07:35;;;;;;;32.50;18.75;;;;;;;18.71;29.54;98751.14;1777197;79;21186;-9
2021/01/15 10:10:05;;;;;;;31.75;17.67;;;;;;;18.83;30.36;98747.54;1752461;80;21638;-9
2021/01/15 10:12:32;;;;;;;27.73;17.77;;;;;;;19.01;30.91;98750.50;1775370;80;21172;-9
2021/01/15 10:15:05;;;;;;;27.77;17.00;;;;;;;19.16;31.29;98749.73;1753008;80;21232;-9
2021/01/15 10:17:33;;;;;;;22.20;15.98;;;;;;;19.33;31.58;98750.16;1771929;79;21182;-9
2021/01/15 10:20:01;;;;;;;23.77;15.68;;;;;;;19.48;31.82;98744.88;1708691;80;21645;-9
2021/01/15 10:22:34;;;;;;;24.50;15.50;;;;;;;19.62;31.96;98749.91;1719212;81;21174;-9
2021/01/15 10:25:01;;;;;;;21.35;14.55;;;;;;;19.74;32.09;98742.69;1768245;81;21166;-9
2021/01/15 10:27:28;;;;;;;22.15;14.40;;;;;;;19.88;32.29;98742.87;1736038;81;21225;-9
2021/01/15 10:29:56;;;;;;;21.45;14.33;;;;;;;19.99;32.41;98757.48;1742022;80;21652;-9
2021/01/15 10:32:25;;;;;;;21.12;13.58;;;;;;;20.09;32.55;98751.34;1752959;80;21157;-9
2021/01/15 10:34:52;;;;;;;24.40;13.62;;;;;;;20.19;32.63;98753.56;1753029;80;21178;-9
2021/01/15 10:37:20;;;;;;;19.77;12.93;;;;;;;20.28;32.74;98750.11;1799348;78;21190;-9
2021/01/15 10:39:48;;;;;;;17.67;12.25;;;;;;;20.34;32.91;98742.91;1743168;81;21209;-9
2021/01/15 10:42:15;;;;;;;21.07;12.73;;;;;;;20.43;32.95;98740.41;1734522;80;21563;-10
2021/01/15 10:44:42;;;;;;;20.57;12.50;;;;;;;20.49;32.99;98740.69;1781459;80;21205;-9
2021/01/15 10:47:13;;;;;;;25.17;13.50;;;;;;;20.54;33.03;98734.95;1752944;80;21174;-10
2021/01/15 10:49:39;;;;;;;29.45;16.27;;;;;;;20.58;30.15;98741.23;1750669;80;21623;-9
2021/01/15 10:52:12;;;;;;;33.85;18.15;;;;;;;20.32;27.08;98738.16;1716007;79;21195;-10
2021/01/15 10:54:36;;;;;;;26.75;16.02;;;;;;;19.83;24.78;98737.08;1767474;78;21202;-9
2021/01/15 10:57:05;;;;;;;22.27;14.80;;;;;;;19.34;25.36;98734.53;1745333;79;21221;-10
2021/01/15 10:59:32;;;;;;;24.95;14.90;;;;;;;19.18;27.22;98738.48;1748147;80;21221;-10
2021/01/15 11:02:03;;;;;;;22.30;14.68;;;;;;;19.19;28.54;98741.98;1776398;80;21118;-9
2021/01/15 11:04:30;;;;;;;21.87;13.85;;;;;;;19.27;29.33;98742.20;1773878;79;21200;-9
2021/01/15 11:07:00;;;;;;;22.00;14.13;;;;;;;19.37;29.86;98735.12;1750587;80;21185;-9
2021/01/15 11:09:28;;;;;;;23.70;14.07;;;;;;;19.49;30.23;98738.08;1780173;79;21222;-9
2021/01/15 11:11:59;;;;;;;20.00;13.83;;;;;;;19.60;30.53;98739.86;1749891;80;21185;-9
2021/01/15 11:14:26;;;;;;;20.17;13.20;;;;;;;19.71;30.81;98746.95;1781214;79;21167;-10
2021/01/15 11:16:55;;;;;;;23.65;13.18;;;;;;;19.82;31.00;98742.05;1748919;80;22174;-9
2021/01/15 11:19:23;;;;;;;19.45;12.45;;;;;;;19.90;31.19;98750.25;1751503;80;21206;-9
2021/01/15 11:21:51;;;;;;;18.42;12.70;;;;;;;19.99;31.36;98744.14;1722616;81;21220;-9
2021/01/15 11:24:19;;;;;;;18.05;12.03;;;;;;;20.08;31.49;98745.66;1738789;79;21112;-9
2021/01/15 11:26:47;;;;;;;18.25;12.15;;;;;;;20.16;31.63;98741.84;1776391;80;21655;-9
2021/01/15 11:29:15;;;;;;;26.55;15.15;;;;;;;20.23;31.75;98748.33;1720721;81;21223;-9
2021/01/15 11:31:43;;;;;;;17.10;11.53;;;;;;;20.22;27.80;98749.30;1715406;80;21217;-9
2021/01/15 11:34:11;;;;;;;17.55;11.00;;;;;;;19.86;25.84;98745.67;1781326;80;21193;-9
2021/01/15 11:36:39;;;;;;;19.02;11.45;;;;;;;19.44;27.76;98744.29;1742182;79;21159;-9
2021/01/15 11:39:11;;;;;;;17.35;11.70;;;;;;;19.28;28.45;98739.41;1747251;81;21608;-9
2021/01/15 11:41:39;;;;;;;21.55;11.97;;;;;;;19.20;29.57;98743.66;1719645;79;21205;-9
2021/01/15 11:44:11;;;;;;;17.32;11.45;;;;;;;19.16;28.71;98751.06;1752715;80;21181;-9
2021/01/15 11:46:38;;;;;;;18.20;11.25;;;;;;;19.02;28.52;98745.55;1781257;80;21190;-9
2021/01/15 11:49:09;;;;;;;21.57;11.30;;;;;;;18.99;28.97;98750.28;1768879;80;21182;-9
2021/01/15 11:51:36;;;;;;;15.68;10.88;;;;;;;19.05;29.69;98747.96;1767436;79;21159;-9
2021/01/15 11:54:12;;;;;;;14.68;10.85;;;;;;;19.14;30.24;98741.02;1761243;79;21326;-9
2021/01/15 11:56:35;;;;;;;17.32;10.58;;;;;;;19.26;30.51;98751.16;1751914;80;21146;-9
2021/01/15 11:59:02;;;;;;;16.87;10.50;;;;;;;19.39;30.82;98747.83;1756718;80;21246;-9